Time;durP1;ratioP1;P1;durP2;ratioP2;P2;SDS_P1;SDS_P2;PMS_P1;PMS_P2;Temp;Humidity;BMP_temperature;BMP_pressure;BME280_temperature;BME280_humidity;BME280_pressure;Samples;Min_cycle;Max_cycle;Signal;HPM_P1;HPM_P2
2023/06/29 00:01:22;;;;;;;4.90;3.83;;;;;;;;;;5057600;28;20095;-64
2023/06/29 00:03:48;;;;;;;5.13;3.75;;;;;;;;;;5057114;28;20017;-64
2023/06/29 00:06:13;;;;;;;4.05;3.67;;;;;;;;;;5057265;28;20492;-65
2023/06/29 00:08:40;;;;;;;4.43;3.95;;;;;;;;;;5057117;28;20086;-63
2023/06/29 00:11:07;;;;;;;6.60;3.97;;;;;;;;;;5056952;28;20029;-65
2023/06/29 00:13:33;;;;;;;4.57;3.88;;;;;;;;;;5055608;28;20472;-64
2023/06/29 00:15:58;;;;;;;4.60;3.97;;;;;;;;;;5055757;28;20043;-66
2023/06/29 00:18:28;;;;;;;5.45;3.97;;;;;;;;;;5056796;28;20017;-65
2023/06/29 00:20:54;;;;;;;4.43;3.85;;;;;;;;;;5057014;28;20043;-65
2023/06/29 00:23:19;;;;;;;8.02;3.65;;;;;;;;;;5055876;28;20044;-64
2023/06/29 00:25:46;;;;;;;6.78;3.92;;;;;;;;;;5055742;28;20041;-63
2023/06/29 00:28:12;;;;;;;4.25;3.83;;;;;;;;;;5055633;28;20073;-65
2023/06/29 00:30:38;;;;;;;4.75;4.35;;;;;;;;;;5055296;28;20127;-64
2023/06/29 00:33:03;;;;;;;5.03;4.25;;;;;;;;;;5056608;28;20409;-63
2023/06/29 00:35:29;;;;;;;5.35;4.00;;;;;;;;;;5056691;28;20036;-63
2023/06/29 00:37:56;;;;;;;4.97;3.97;;;;;;;;;;5056646;28;20033;-64
2023/06/29 00:40:22;;;;;;;4.47;3.65;;;;;;;;;;5055253;28;20128;-65
2023/06/29 00:42:48;;;;;;;4.70;4.25;;;;;;;;;;5055340;28;20039;-64
2023/06/29 00:45:15;;;;;;;4.38;4.03;;;;;;;;;;5056382;28;20052;-64
2023/06/29 00:47:41;;;;;;;4.90;4.32;;;;;;;;;;5056648;28;20017;-65
2023/06/29 00:50:07;;;;;;;4.65;4.25;;;;;;;;;;5056643;28;20044;-65
2023/06/29 00:52:32;;;;;;;4.40;3.58;;;;;;;;;;5054643;28;20120;-64
2023/06/29 00:54:58;;;;;;;4.40;3.88;;;;;;;;;;5055096;28;20035;-65
2023/06/29 00:57:24;;;;;;;4.43;3.92;;;;;;;;;;5054997;28;20036;-61
2023/06/29 00:59:49;;;;;;;4.30;3.90;;;;;;;;;;5056288;28;20532;-62
2023/06/29 01:02:15;;;;;;;4.15;3.83;;;;;;;;;;5054937;28;20128;-63
2023/06/29 01:04:41;;;;;;;4.75;4.03;;;;;;;;;;5056153;28;20070;-63
2023/06/29 01:07:07;;;;;;;4.75;4.05;;;;;;;;;;5054830;28;20380;-65
2023/06/29 01:09:33;;;;;;;6.18;4.47;;;;;;;;;;5055026;28;20082;-65
2023/06/29 01:11:58;;;;;;;4.28;3.85;;;;;;;;;;5054616;28;20046;-65
2023/06/29 01:14:26;;;;;;;4.13;3.78;;;;;;;;;;5056405;28;20195;-65
2023/06/29 01:16:53;;;;;;;6.55;4.15;;;;;;;;;;5055672;28;20020;-65
2023/06/29 01:19:23;;;;;;;4.28;3.97;;;;;;;;;;5054228;28;20384;-67
2023/06/29 01:21:57;;;;;;;4.10;3.80;;;;;;;;;;5054669;28;20033;-68
2023/06/29 01:24:24;;;;;;;4.93;3.88;;;;;;;;;;5054611;28;20040;-68
2023/06/29 01:26:50;;;;;;;5.45;4.47;;;;;;;;;;5055839;28;20096;-66
2023/06/29 01:29:24;;;;;;;5.00;4.28;;;;;;;;;;5055646;28;20112;-66
2023/06/29 01:31:50;;;;;;;4.75;4.35;;;;;;;;;;5054123;28;20397;-65
2023/06/29 01:34:15;;;;;;;4.75;4.30;;;;;;;;;;5055918;28;20121;-66
2023/06/29 01:36:42;;;;;;;7.30;4.63;;;;;;;;;;5054510;28;20035;-65
2023/06/29 01:39:13;;;;;;;5.03;4.15;;;;;;;;;;5054343;28;20033;-66
2023/06/29 01:41:40;;;;;;;5.88;4.63;;;;;;;;;;5054051;28;20068;-64
2023/06/29 01:44:08;;;;;;;4.88;4.40;;;;;;;;;;5055379;28;20468;-65
2023/06/29 01:46:34;;;;;;;5.93;4.20;;;;;;;;;;5055101;28;20066;-66
2023/06/29 01:48:59;;;;;;;5.53;4.43;;;;;;;;;;5053999;28;20461;-66
2023/06/29 01:51:24;;;;;;;6.55;4.75;;;;;;;;;;5054096;28;20025;-64
2023/06/29 01:53:51;;;;;;;7.22;4.82;;;;;;;;;;5054241;28;20032;-63
2023/06/29 01:56:16;;;;;;;5.47;4.93;;;;;;;;;;5053716;28;20158;-63
2023/06/29 01:58:51;;;;;;;4.93;4.53;;;;;;;;;;5053810;28;20044;-63
2023/06/29 02:01:17;;;;;;;4.90;4.07;;;;;;;;;;5053719;28;20036;-64
2023/06/29 02:03:42;;;;;;;4.88;4.47;;;;;;;;;;5054370;28;20020;-65
2023/06/29 02:06:08;;;;;;;4.88;4.38;;;;;;;;;;5053920;28;20021;-63
2023/06/29 02:08:40;;;;;;;5.78;4.55;;;;;;;;;;5041485;23;20050;-61
2023/06/29 02:11:06;;;;;;;4.60;4.15;;;;;;;;;;4995738;28;20166;-62
2023/06/29 02:13:32;;;;;;;6.88;4.70;;;;;;;;;;4994385;28;20054;-63
2023/06/29 02:15:57;;;;;;;4.60;4.13;;;;;;;;;;4994213;28;20030;-64
2023/06/29 02:18:23;;;;;;;5.95;4.22;;;;;;;;;;5010462;28;20080;-64
2023/06/29 02:20:48;;;;;;;6.00;4.40;;;;;;;;;;4995075;28;20097;-64
2023/06/29 02:23:14;;;;;;;5.00;4.15;;;;;;;;;;4995532;28;20026;-63
2023/06/29 02:25:40;;;;;;;5.43;4.25;;;;;;;;;;4995460;28;20023;-61
2023/06/29 02:28:07;;;;;;;9.30;5.18;;;;;;;;;;4993753;28;20458;-63
2023/06/29 02:30:32;;;;;;;4.97;4.57;;;;;;;;;;4995147;28;20018;-62
2023/06/29 02:32:58;;;;;;;5.55;4.45;;;;;;;;;;4993585;28;20515;-62
2023/06/29 02:35:23;;;;;;;5.57;4.55;;;;;;;;;;4994025;28;20440;-62
2023/06/29 02:37:49;;;;;;;5.65;4.65;;;;;;;;;;4994111;28;20038;-63
2023/06/29 02:40:16;;;;;;;5.50;4.28;;;;;;;;;;4994119;28;20045;-63
2023/06/29 02:42:42;;;;;;;5.18;4.68;;;;;;;;;;4993914;28;20022;-62
2023/06/29 02:45:09;;;;;;;5.93;5.32;;;;;;;;;;4993886;28;20362;-63
2023/06/29 02:47:41;;;;;;;5.55;5.03;;;;;;;;;;4993950;28;20085;-63
2023/06/29 02:50:06;;;;;;;4.60;4.18;;;;;;;;;;4993852;28;20026;-64
2023/06/29 02:52:49;;;;;;;6.72;4.80;;;;;;;;;;4995183;28;20141;-63
2023/06/29 02:55:17;;;;;;;6.13;5.20;;;;;;;;;;4993631;28;20431;-63
2023/06/29 02:57:42;;;;;;;7.75;5.18;;;;;;;;;;5010137;28;20077;-64
2023/06/29 03:00:08;;;;;;;5.85;4.80;;;;;;;;;;4994866;28;20059;-62
2023/06/29 03:02:34;;;;;;;7.13;4.85;;;;;;;;;;4993225;28;20014;-63
2023/06/29 03:04:59;;;;;;;10.07;4.90;;;;;;;;;;4994507;28;20549;-63
2023/06/29 03:07:26;;;;;;;6.68;5.28;;;;;;;;;;4993359;28;20018;-64
2023/06/29 03:09:51;;;;;;;7.75;5.05;;;;;;;;;;4994389;28;20486;-64
2023/06/29 03:12:20;;;;;;;6.40;4.43;;;;;;;;;;4994423;28;20429;-64
2023/06/29 03:14:46;;;;;;;7.28;4.95;;;;;;;;;;4994479;28;20018;-64
2023/06/29 03:17:13;;;;;;;7.25;4.80;;;;;;;;;;4993978;28;20496;-65
2023/06/29 03:19:38;;;;;;;5.40;4.85;;;;;;;;;;4994173;28;20394;-65
2023/06/29 03:22:04;;;;;;;7.90;5.03;;;;;;;;;;4994482;28;20034;-65
2023/06/29 03:24:29;;;;;;;5.93;4.93;;;;;;;;;;4994544;28;20117;-65
2023/06/29 03:26:54;;;;;;;6.85;4.93;;;;;;;;;;4994684;28;20030;-66
2023/06/29 03:29:19;;;;;;;9.43;5.15;;;;;;;;;;4993275;28;20065;-66
2023/06/29 03:31:45;;;;;;;5.45;4.95;;;;;;;;;;4993174;28;20041;-65
2023/06/29 03:34:10;;;;;;;5.18;4.63;;;;;;;;;;4994599;28;20386;-65
2023/06/29 03:36:35;;;;;;;8.43;5.05;;;;;;;;;;4994442;28;20357;-65
2023/06/29 03:39:01;;;;;;;6.75;5.72;;;;;;;;;;4994627;28;20030;-65
2023/06/29 03:41:26;;;;;;;6.75;4.90;;;;;;;;;;4994078;28;20435;-65
2023/06/29 03:43:52;;;;;;;6.88;5.82;;;;;;;;;;4993360;28;20034;-65
2023/06/29 03:46:17;;;;;;;5.63;4.78;;;;;;;;;;4994407;28;20029;-65
2023/06/29 03:48:42;;;;;;;6.45;5.57;;;;;;;;;;4994330;28;20114;-63
2023/06/29 03:51:08;;;;;;;6.03;5.38;;;;;;;;;;4994020;28;20038;-62
2023/06/29 03:53:33;;;;;;;5.80;5.28;;;;;;;;;;4993078;28;20019;-63
2023/06/29 03:55:59;;;;;;;6.63;5.35;;;;;;;;;;4993979;28;20034;-62
2023/06/29 03:58:24;;;;;;;6.78;5.05;;;;;;;;;;4994081;28;20034;-62
2023/06/29 04:00:50;;;;;;;6.05;5.45;;;;;;;;;;4994407;28;20070;-62
2023/06/29 04:03:16;;;;;;;7.75;5.43;;;;;;;;;;4994136;28;20030;-65
2023/06/29 04:05:41;;;;;;;6.25;5.40;;;;;;;;;;4994029;28;20029;-64
2023/06/29 04:08:07;;;;;;;8.30;5.45;;;;;;;;;;4991769;28;20493;-66
2023/06/29 04:10:35;;;;;;;5.88;4.75;;;;;;;;;;4992421;28;20054;-65
2023/06/29 04:13:01;;;;;;;5.78;5.03;;;;;;;;;;4993567;28;20113;-65
2023/06/29 04:15:26;;;;;;;10.00;5.63;;;;;;;;;;4994103;28;20113;-65
2023/06/29 04:17:51;;;;;;;7.32;5.70;;;;;;;;;;5025667;28;20117;-66
2023/06/29 04:20:17;;;;;;;6.63;5.40;;;;;;;;;;4993737;28;20128;-63
2023/06/29 04:22:42;;;;;;;6.13;5.32;;;;;;;;;;4993820;28;20015;-62
2023/06/29 04:25:09;;;;;;;9.45;5.82;;;;;;;;;;4994085;28;20521;-62
2023/06/29 04:27:35;;;;;;;9.00;5.93;;;;;;;;;;4995185;28;20034;-64
2023/06/29 04:30:01;;;;;;;7.63;5.40;;;;;;;;;;4997634;28;20030;-64
2023/06/29 04:32:26;;;;;;;7.75;5.18;;;;;;;;;;4997145;28;20042;-65
2023/06/29 04:35:01;;;;;;;8.15;5.97;;;;;;;;;;4996293;28;20073;-65
2023/06/29 04:37:35;;;;;;;6.40;5.13;;;;;;;;;;4996529;28;20039;-65
2023/06/29 04:40:01;;;;;;;6.78;5.22;;;;;;;;;;4995554;28;20398;-65
2023/06/29 04:42:30;;;;;;;6.10;5.35;;;;;;;;;;4996977;28;20030;-65
2023/06/29 04:44:55;;;;;;;6.50;5.55;;;;;;;;;;4996961;28;20046;-64
2023/06/29 04:47:21;;;;;;;6.13;5.60;;;;;;;;;;4996130;28;20026;-66
2023/06/29 04:49:46;;;;;;;5.90;5.25;;;;;;;;;;4996612;28;20549;-64
2023/06/29 04:52:12;;;;;;;9.45;5.68;;;;;;;;;;4996449;28;20046;-65
2023/06/29 04:54:37;;;;;;;7.45;5.72;;;;;;;;;;4996232;28;20398;-64
2023/06/29 04:57:03;;;;;;;6.53;5.45;;;;;;;;;;4995662;28;20474;-65
2023/06/29 04:59:28;;;;;;;7.07;5.45;;;;;;;;;;4996583;28;20041;-65
2023/06/29 05:01:54;;;;;;;8.40;5.30;;;;;;;;;;4996248;28;20036;-65
2023/06/29 05:04:19;;;;;;;7.13;5.55;;;;;;;;;;4996612;28;20026;-64
2023/06/29 05:06:45;;;;;;;6.90;6.03;;;;;;;;;;4996789;28;20026;-65
2023/06/29 05:09:10;;;;;;;10.57;5.40;;;;;;;;;;5011547;28;20114;-64
2023/06/29 05:11:35;;;;;;;6.72;5.30;;;;;;;;;;4996613;28;20421;-65
2023/06/29 05:14:01;;;;;;;6.85;5.15;;;;;;;;;;4996509;28;20374;-64
2023/06/29 05:16:26;;;;;;;6.07;5.55;;;;;;;;;;4995895;28;20034;-65
2023/06/29 05:18:52;;;;;;;6.18;5.57;;;;;;;;;;4995744;28;20069;-65
2023/06/29 05:21:17;;;;;;;6.72;5.18;;;;;;;;;;4994658;28;20055;-64
2023/06/29 05:23:43;;;;;;;6.20;5.47;;;;;;;;;;4995359;28;20487;-64
2023/06/29 05:26:08;;;;;;;7.50;6.20;;;;;;;;;;4995622;28;20081;-65
2023/06/29 05:28:33;;;;;;;8.48;5.82;;;;;;;;;;4994743;28;20069;-64
2023/06/29 05:30:59;;;;;;;7.70;5.38;;;;;;;;;;4992834;28;20038;-64
2023/06/29 05:33:24;;;;;;;6.63;5.85;;;;;;;;;;4993142;28;20022;-64
2023/06/29 05:35:50;;;;;;;7.43;5.47;;;;;;;;;;4993714;28;20038;-64
2023/06/29 05:38:15;;;;;;;7.70;5.65;;;;;;;;;;4994250;28;20034;-65
2023/06/29 05:40:41;;;;;;;6.40;5.75;;;;;;;;;;4993485;28;20034;-64
2023/06/29 05:43:06;;;;;;;6.15;5.10;;;;;;;;;;4994602;28;20037;-65
2023/06/29 05:45:32;;;;;;;9.93;6.25;;;;;;;;;;4994262;28;20036;-65
2023/06/29 05:47:57;;;;;;;5.97;5.45;;;;;;;;;;4994403;28;20498;-65
2023/06/29 05:50:22;;;;;;;5.95;5.35;;;;;;;;;;4994226;28;20035;-65
2023/06/29 05:52:48;;;;;;;5.97;5.45;;;;;;;;;;4994608;28;20026;-64
2023/06/29 05:55:13;;;;;;;9.27;5.25;;;;;;;;;;4993953;28;20111;-64
2023/06/29 05:57:38;;;;;;;6.75;6.07;;;;;;;;;;4994743;28;20080;-64
2023/06/29 06:00:09;;;;;;;6.13;5.32;;;;;;;;;;4994526;28;20113;-64
2023/06/29 06:02:38;;;;;;;5.72;5.22;;;;;;;;;;4994937;28;20074;-65
2023/06/29 06:05:04;;;;;;;7.55;5.53;;;;;;;;;;4995104;28;20018;-64
2023/06/29 06:07:30;;;;;;;6.43;5.90;;;;;;;;;;4993762;28;20057;-64
2023/06/29 06:09:56;;;;;;;5.50;4.95;;;;;;;;;;4991493;28;20077;-65
2023/06/29 06:12:21;;;;;;;9.05;6.05;;;;;;;;;;4993170;28;20034;-64
2023/06/29 06:14:47;;;;;;;7.15;5.80;;;;;;;;;;4993269;28;20069;-65
2023/06/29 06:17:12;;;;;;;8.93;6.72;;;;;;;;;;4992274;28;20042;-64
2023/06/29 06:19:37;;;;;;;6.50;5.78;;;;;;;;;;4992745;28;20466;-65
2023/06/29 06:22:03;;;;;;;5.05;4.60;;;;;;;;;;4994687;28;20469;-65
2023/06/29 06:24:28;;;;;;;5.93;5.28;;;;;;;;;;4993494;28;20461;-64
2023/06/29 06:26:54;;;;;;;6.55;5.13;;;;;;;;;;4977261;28;20030;-64
2023/06/29 06:29:19;;;;;;;7.72;5.15;;;;;;;;;;4994642;28;20442;-65
2023/06/29 06:31:45;;;;;;;5.53;5.03;;;;;;;;;;4994586;28;20121;-65
2023/06/29 06:34:10;;;;;;;6.20;5.57;;;;;;;;;;4994530;28;20080;-64
2023/06/29 06:36:35;;;;;;;6.10;5.40;;;;;;;;;;4994455;28;20497;-64
2023/06/29 06:39:00;;;;;;;7.47;5.55;;;;;;;;;;4994542;28;20105;-64
2023/06/29 06:41:26;;;;;;;6.03;5.45;;;;;;;;;;4994507;28;20064;-64
2023/06/29 06:43:51;;;;;;;7.88;5.88;;;;;;;;;;4994565;28;20373;-64
2023/06/29 06:46:20;;;;;;;5.38;3.97;;;;;;;;;;4994540;28;20038;-64
2023/06/29 06:48:46;;;;;;;5.50;4.82;;;;;;;;;;4992925;28;20115;-63
2023/06/29 06:51:16;;;;;;;5.93;5.13;;;;;;;;;;4976439;28;20077;-64
2023/06/29 06:53:41;;;;;;;5.60;5.00;;;;;;;;;;4994465;28;20030;-64
2023/06/29 06:56:08;;;;;;;9.00;5.25;;;;;;;;;;4994395;28;20499;-63
2023/06/29 06:58:34;;;;;;;4.95;4.53;;;;;;;;;;4994500;28;20097;-63
2023/06/29 07:00:59;;;;;;;6.15;4.82;;;;;;;;;;4994305;28;20579;-64
2023/06/29 07:03:25;;;;;;;5.20;4.78;;;;;;;;;;4994243;28;20037;-62
2023/06/29 07:05:53;;;;;;;5.28;4.80;;;;;;;;;;4994073;28;20022;-63
2023/06/29 07:08:19;;;;;;;4.95;4.57;;;;;;;;;;4992654;28;20033;-62
2023/06/29 07:10:44;;;;;;;6.43;5.57;;;;;;;;;;4994325;28;20030;-64
2023/06/29 07:13:10;;;;;;;5.10;4.57;;;;;;;;;;4992135;28;20041;-63
2023/06/29 07:15:36;;;;;;;7.00;5.55;;;;;;;;;;4994020;28;20038;-62
2023/06/29 07:18:03;;;;;;;6.60;4.75;;;;;;;;;;4993301;28;20038;-63
2023/06/29 07:20:28;;;;;;;6.18;5.68;;;;;;;;;;4993465;28;20022;-64
2023/06/29 07:22:54;;;;;;;6.47;5.65;;;;;;;;;;4977029;28;20544;-62
2023/06/29 07:25:20;;;;;;;6.07;5.32;;;;;;;;;;4994234;28;20492;-64
2023/06/29 07:27:45;;;;;;;6.72;5.68;;;;;;;;;;4992620;28;20042;-64
2023/06/29 07:30:11;;;;;;;6.75;5.05;;;;;;;;;;4993559;28;20029;-64
2023/06/29 07:32:37;;;;;;;7.22;5.28;;;;;;;;;;4991906;28;20117;-64
2023/06/29 07:35:02;;;;;;;5.75;5.13;;;;;;;;;;4990758;28;20034;-63
2023/06/29 07:37:28;;;;;;;7.05;5.78;;;;;;;;;;4992236;28;20537;-62
2023/06/29 07:39:53;;;;;;;4.70;4.28;;;;;;;;;;4992225;28;20525;-62
2023/06/29 07:42:18;;;;;;;5.05;4.65;;;;;;;;;;4992176;28;20034;-64
2023/06/29 07:44:44;;;;;;;5.07;4.57;;;;;;;;;;4991847;28;20104;-64
2023/06/29 07:47:09;;;;;;;6.78;5.22;;;;;;;;;;4993109;28;20040;-64
2023/06/29 07:49:35;;;;;;;5.45;4.78;;;;;;;;;;4993661;28;20038;-62
2023/06/29 07:52:00;;;;;;;4.45;4.10;;;;;;;;;;4993646;28;20027;-65
2023/06/29 07:54:27;;;;;;;5.18;4.40;;;;;;;;;;4993623;28;20080;-63
2023/06/29 07:56:52;;;;;;;5.30;4.80;;;;;;;;;;4993593;28;20033;-63
2023/06/29 07:59:17;;;;;;;6.32;5.57;;;;;;;;;;4993587;28;20026;-63
2023/06/29 08:01:46;;;;;;;6.88;6.07;;;;;;;;;;4993652;28;20033;-63
2023/06/29 08:04:12;;;;;;;6.90;6.22;;;;;;;;;;4997312;28;20058;-63
2023/06/29 08:06:41;;;;;;;4.93;4.53;;;;;;;;;;4997374;28;20478;-64
2023/06/29 08:09:08;;;;;;;4.35;3.95;;;;;;;;;;4996019;28;20046;-64
2023/06/29 08:11:33;;;;;;;5.88;5.35;;;;;;;;;;4996037;28;20045;-63
2023/06/29 08:13:59;;;;;;;8.35;5.57;;;;;;;;;;4997189;28;20121;-64
2023/06/29 08:16:24;;;;;;;6.75;5.60;;;;;;;;;;4997181;28;20053;-63
2023/06/29 08:18:49;;;;;;;7.63;5.32;;;;;;;;;;4995864;28;20030;-64
2023/06/29 08:21:14;;;;;;;6.13;5.53;;;;;;;;;;4997009;28;20097;-62
2023/06/29 08:23:40;;;;;;;7.57;5.00;;;;;;;;;;4995842;28;20034;-64
2023/06/29 08:26:05;;;;;;;5.47;4.88;;;;;;;;;;4997204;28;20026;-63
2023/06/29 08:28:31;;;;;;;4.93;4.53;;;;;;;;;;4996840;28;20034;-63
2023/06/29 08:30:56;;;;;;;5.40;4.47;;;;;;;;;;4995645;28;20049;-64
2023/06/29 08:33:23;;;;;;;5.22;4.63;;;;;;;;;;4996785;28;20437;-63
2023/06/29 08:35:50;;;;;;;6.25;4.32;;;;;;;;;;4996797;28;20301;-62
2023/06/29 08:38:15;;;;;;;6.47;5.03;;;;;;;;;;4996771;28;20046;-64
2023/06/29 08:40:44;;;;;;;5.53;4.95;;;;;;;;;;4995503;28;20034;-63
2023/06/29 08:43:11;;;;;;;5.32;4.93;;;;;;;;;;4996617;28;20034;-62
2023/06/29 08:45:37;;;;;;;5.10;4.60;;;;;;;;;;4996625;28;20034;-62
2023/06/29 08:48:02;;;;;;;5.90;4.90;;;;;;;;;;4995373;28;20022;-64
2023/06/29 08:50:30;;;;;;;4.20;3.90;;;;;;;;;;4996482;28;20030;-63
2023/06/29 08:52:55;;;;;;;6.38;5.05;;;;;;;;;;4996481;28;20038;-63
2023/06/29 08:55:22;;;;;;;6.00;5.40;;;;;;;;;;4996441;28;20034;-64
2023/06/29 08:57:47;;;;;;;7.18;5.70;;;;;;;;;;4996377;28;20389;-65
2023/06/29 09:00:13;;;;;;;6.85;6.20;;;;;;;;;;4996300;28;20037;-64
2023/06/29 09:02:38;;;;;;;5.40;4.90;;;;;;;;;;4996516;28;20382;-63
2023/06/29 09:05:04;;;;;;;5.45;4.95;;;;;;;;;;4996264;28;20486;-62
2023/06/29 09:07:29;;;;;;;5.38;4.85;;;;;;;;;;4996126;28;20067;-62
2023/06/29 09:09:55;;;;;;;5.88;5.07;;;;;;;;;;4994859;28;20141;-63
2023/06/29 09:12:20;;;;;;;5.18;4.68;;;;;;;;;;4994921;28;20038;-63
2023/06/29 09:14:47;;;;;;;5.60;4.90;;;;;;;;;;4994444;28;20113;-63
2023/06/29 09:17:16;;;;;;;5.80;5.28;;;;;;;;;;4995240;28;20057;-65
2023/06/29 09:19:54;;;;;;;7.80;5.17;;;;;;;;;;4995945;28;20104;-62
2023/06/29 09:22:21;;;;;;;6.68;5.13;;;;;;;;;;4996038;28;20696;-64
2023/06/29 09:24:46;;;;;;;7.60;5.60;;;;;;;;;;4995854;28;20105;-63
2023/06/29 09:27:12;;;;;;;6.00;5.45;;;;;;;;;;4978452;28;20122;-64
2023/06/29 09:29:37;;;;;;;6.28;5.72;;;;;;;;;;4995817;28;20037;-63
2023/06/29 09:32:03;;;;;;;5.97;5.45;;;;;;;;;;4995741;28;20034;-63
2023/06/29 09:34:28;;;;;;;5.85;5.35;;;;;;;;;;4995712;28;20044;-64
2023/06/29 09:36:54;;;;;;;5.55;5.05;;;;;;;;;;4995946;28;20101;-63
2023/06/29 09:39:20;;;;;;;9.18;6.50;;;;;;;;;;4995649;28;20041;-63
2023/06/29 09:41:46;;;;;;;5.88;5.35;;;;;;;;;;4994298;28;20030;-61
2023/06/29 09:44:12;;;;;;;8.63;5.82;;;;;;;;;;4995488;28;20046;-63
2023/06/29 09:46:40;;;;;;;8.98;5.72;;;;;;;;;;4995437;28;20390;-62
2023/06/29 09:49:07;;;;;;;6.25;5.60;;;;;;;;;;4995428;28;20057;-63
2023/06/29 09:51:32;;;;;;;6.68;5.25;;;;;;;;;;4995370;28;20118;-62
2023/06/29 09:54:00;;;;;;;6.38;5.80;;;;;;;;;;4994222;28;20113;-63
2023/06/29 09:56:26;;;;;;;6.90;5.80;;;;;;;;;;4995269;28;20030;-64
2023/06/29 09:58:53;;;;;;;6.13;5.63;;;;;;;;;;4993934;28;20501;-64
2023/06/29 10:01:18;;;;;;;5.80;5.22;;;;;;;;;;4995116;28;20034;-62
2023/06/29 10:03:44;;;;;;;6.57;5.05;;;;;;;;;;4995153;28;20026;-63
2023/06/29 10:06:15;;;;;;;5.95;5.45;;;;;;;;;;4995154;28;20031;-62
2023/06/29 10:08:41;;;;;;;7.13;6.43;;;;;;;;;;4993668;28;20039;-64
2023/06/29 10:11:08;;;;;;;6.50;5.90;;;;;;;;;;4995032;28;20532;-63
2023/06/29 10:13:38;;;;;;;6.65;5.80;;;;;;;;;;4994997;28;20490;-63
2023/06/29 10:16:05;;;;;;;6.60;5.67;;;;;;;;;;4994995;28;20535;-64
2023/06/29 10:18:34;;;;;;;7.97;7.20;;;;;;;;;;4994838;28;20029;-64
2023/06/29 10:21:00;;;;;;;6.28;5.68;;;;;;;;;;4994722;28;20041;-64
2023/06/29 10:23:26;;;;;;;6.25;5.47;;;;;;;;;;4994822;28;20026;-64
2023/06/29 10:25:52;;;;;;;5.13;4.20;;;;;;;;;;4993999;28;20363;-64
2023/06/29 10:28:18;;;;;;;5.05;4.70;;;;;;;;;;4993416;28;20035;-63
2023/06/29 10:30:47;;;;;;;5.78;4.95;;;;;;;;;;4994708;28;20097;-64
2023/06/29 10:33:13;;;;;;;8.02;6.05;;;;;;;;;;4994574;28;20121;-64
2023/06/29 10:35:39;;;;;;;5.00;4.30;;;;;;;;;;4994625;28;20105;-62
2023/06/29 10:38:12;;;;;;;4.47;4.15;;;;;;;;;;4994475;28;20041;-64
2023/06/29 10:40:55;;;;;;;5.30;4.78;;;;;;;;;;4994486;28;20033;-63
2023/06/29 10:43:20;;;;;;;5.97;5.47;;;;;;;;;;4993286;28;20031;-62
2023/06/29 10:45:46;;;;;;;5.68;5.10;;;;;;;;;;4994346;28;20019;-64
2023/06/29 10:48:16;;;;;;;5.25;4.70;;;;;;;;;;4994375;28;20034;-63
2023/06/29 10:50:43;;;;;;;6.75;5.47;;;;;;;;;;4992924;28;20406;-63
2023/06/29 10:53:10;;;;;;;6.38;5.82;;;;;;;;;;4994298;28;20043;-63
2023/06/29 10:55:52;;;;;;;5.25;4.85;;;;;;;;;;4992947;28;20363;-63
2023/06/29 10:58:21;;;;;;;5.32;4.93;;;;;;;;;;4994231;28;20572;-62
2023/06/29 11:00:47;;;;;;;6.95;5.28;;;;;;;;;;4994149;28;20022;-62
2023/06/29 11:03:13;;;;;;;5.57;5.07;;;;;;;;;;4994100;28;20477;-64
2023/06/29 11:05:38;;;;;;;5.72;4.95;;;;;;;;;;4994118;28;20022;-64
2023/06/29 11:08:05;;;;;;;6.45;4.60;;;;;;;;;;4994112;28;20029;-63
2023/06/29 11:10:30;;;;;;;5.82;5.05;;;;;;;;;;4992719;28;20042;-63
2023/06/29 11:12:56;;;;;;;6.05;5.38;;;;;;;;;;4993962;28;20037;-63
2023/06/29 11:15:21;;;;;;;6.20;5.53;;;;;;;;;;4994006;28;20035;-62
2023/06/29 11:17:50;;;;;;;7.35;5.10;;;;;;;;;;4992642;28;20375;-62
2023/06/29 11:20:17;;;;;;;5.28;4.72;;;;;;;;;;4992554;28;20425;-64
2023/06/29 11:22:42;;;;;;;6.90;6.22;;;;;;;;;;4992685;28;20451;-63
2023/06/29 11:25:11;;;;;;;6.55;5.90;;;;;;;;;;4993810;28;20054;-63
2023/06/29 11:27:37;;;;;;;6.38;5.78;;;;;;;;;;4993886;28;20121;-64
2023/06/29 11:30:06;;;;;;;4.82;4.43;;;;;;;;;;4993847;28;20077;-64
2023/06/29 11:32:32;;;;;;;8.17;5.63;;;;;;;;;;4993851;28;20019;-64
2023/06/29 11:34:57;;;;;;;6.25;5.13;;;;;;;;;;4993767;28;20397;-64
2023/06/29 11:37:23;;;;;;;5.32;4.90;;;;;;;;;;5017752;23;20494;-64
2023/06/29 11:39:49;;;;;;;6.95;6.18;;;;;;;;;;5027363;23;20395;-64
2023/06/29 11:42:16;;;;;;;6.03;5.30;;;;;;;;;;5017457;28;20037;-64
2023/06/29 11:44:42;;;;;;;5.80;5.30;;;;;;;;;;5017370;28;20032;-64
2023/06/29 11:47:08;;;;;;;5.28;4.78;;;;;;;;;;5017349;28;20113;-64
2023/06/29 11:49:34;;;;;;;5.57;5.07;;;;;;;;;;5017324;28;20034;-64
2023/06/29 11:52:00;;;;;;;6.40;5.47;;;;;;;;;;5017243;28;20026;-64
2023/06/29 11:54:29;;;;;;;5.60;5.15;;;;;;;;;;5017255;28;20080;-64
2023/06/29 11:56:54;;;;;;;7.50;5.60;;;;;;;;;;5017179;28;20473;-64
2023/06/29 11:59:20;;;;;;;8.02;5.47;;;;;;;;;;5017175;28;20068;-64
2023/06/29 12:01:46;;;;;;;5.55;5.05;;;;;;;;;;5017008;28;20046;-64
2023/06/29 12:04:13;;;;;;;7.25;5.70;;;;;;;;;;5017006;28;20038;-65
2023/06/29 12:06:55;;;;;;;6.15;5.38;;;;;;;;;;5032190;28;20022;-64
2023/06/29 12:09:32;;;;;;;5.90;5.25;;;;;;;;;;5017001;28;20033;-64
2023/06/29 12:11:58;;;;;;;6.32;5.55;;;;;;;;;;5032145;28;20033;-64
2023/06/29 12:14:26;;;;;;;6.32;5.65;;;;;;;;;;5016959;28;20034;-64
2023/06/29 12:16:51;;;;;;;7.47;6.47;;;;;;;;;;5016723;28;20045;-65
2023/06/29 12:19:17;;;;;;;7.55;5.72;;;;;;;;;;5016736;28;20038;-65
2023/06/29 12:21:42;;;;;;;5.75;5.25;;;;;;;;;;5016607;28;20056;-65
2023/06/29 12:24:07;;;;;;;5.38;4.97;;;;;;;;;;5016658;28;20026;-64
2023/06/29 12:26:32;;;;;;;7.60;5.68;;;;;;;;;;5016643;28;20026;-64
2023/06/29 12:28:58;;;;;;;6.07;5.03;;;;;;;;;;5015304;28;20018;-64
2023/06/29 12:31:30;;;;;;;6.72;4.72;;;;;;;;;;5026398;23;20169;-62
2023/06/29 12:33:56;;;;;;;4.93;4.43;;;;;;;;;;5018960;23;20049;-64
2023/06/29 12:36:21;;;;;;;6.05;5.57;;;;;;;;;;5018798;28;20085;-63
2023/06/29 12:38:47;;;;;;;5.30;4.80;;;;;;;;;;5036723;28;20030;-63
2023/06/29 12:41:13;;;;;;;3.80;3.58;;;;;;;;;;5036314;28;20032;-64
2023/06/29 12:43:38;;;;;;;3.28;3.08;;;;;;;;;;5036340;28;20568;-62
2023/06/29 12:46:03;;;;;;;4.28;3.33;;;;;;;;;;5036576;28;20021;-64
2023/06/29 12:48:30;;;;;;;3.10;2.90;;;;;;;;;;5036084;28;20026;-62
2023/06/29 12:50:59;;;;;;;3.92;3.13;;;;;;;;;;5036518;28;20480;-64
2023/06/29 12:53:27;;;;;;;3.60;3.22;;;;;;;;;;5036205;28;20029;-63
2023/06/29 12:55:53;;;;;;;3.70;3.40;;;;;;;;;;5036397;28;20040;-64
2023/06/29 12:58:18;;;;;;;4.07;3.67;;;;;;;;;;5035996;28;20037;-64
2023/06/29 13:00:43;;;;;;;5.60;3.72;;;;;;;;;;5036148;28;20354;-64
2023/06/29 13:03:14;;;;;;;4.35;3.97;;;;;;;;;;5017627;28;20040;-64
2023/06/29 13:05:39;;;;;;;3.95;3.75;;;;;;;;;;5035536;28;20037;-64
2023/06/29 13:08:05;;;;;;;4.95;3.70;;;;;;;;;;5035522;28;20030;-64
2023/06/29 13:10:30;;;;;;;4.47;4.07;;;;;;;;;;5017869;28;20025;-63
2023/06/29 13:12:55;;;;;;;4.60;4.20;;;;;;;;;;5035759;28;20021;-64
2023/06/29 13:15:21;;;;;;;4.45;4.05;;;;;;;;;;5017791;28;20072;-64
2023/06/29 13:17:46;;;;;;;4.03;3.42;;;;;;;;;;5035002;28;20033;-64
2023/06/29 13:20:14;;;;;;;3.83;3.53;;;;;;;;;;5017396;28;20025;-64
2023/06/29 13:22:40;;;;;;;3.95;3.65;;;;;;;;;;5017310;28;20037;-64
2023/06/29 13:25:05;;;;;;;3.20;3.00;;;;;;;;;;5032986;28;20112;-65
2023/06/29 13:27:32;;;;;;;3.67;3.30;;;;;;;;;;5034266;28;20030;-64
2023/06/29 13:30:00;;;;;;;3.72;3.17;;;;;;;;;;5016703;28;20056;-64
2023/06/29 13:32:25;;;;;;;3.60;3.30;;;;;;;;;;5034641;28;20052;-63
2023/06/29 13:34:51;;;;;;;3.60;3.40;;;;;;;;;;5034277;28;20116;-63
2023/06/29 13:37:18;;;;;;;3.53;3.08;;;;;;;;;;5034733;28;20048;-63
2023/06/29 13:39:44;;;;;;;3.05;2.85;;;;;;;;;;5016291;28;20028;-63
2023/06/29 13:42:15;;;;;;;3.65;3.45;;;;;;;;;;5034490;28;20033;-64
2023/06/29 13:44:40;;;;;;;3.08;2.88;;;;;;;;;;5017443;28;20025;-64
2023/06/29 13:47:06;;;;;;;5.40;5.00;;;;;;;;;;5035351;28;20120;-64
2023/06/29 13:49:31;;;;;;;3.47;3.13;;;;;;;;;;5017817;28;20076;-66
2023/06/29 13:52:00;;;;;;;3.83;3.08;;;;;;;;;;5000955;28;20087;-63
2023/06/29 13:54:25;;;;;;;3.53;3.25;;;;;;;;;;5035558;28;20030;-64
2023/06/29 13:56:52;;;;;;;3.70;3.38;;;;;;;;;;5034836;28;20087;-65
2023/06/29 13:59:17;;;;;;;3.80;3.45;;;;;;;;;;5016043;28;20424;-65
2023/06/29 14:01:44;;;;;;;3.63;3.42;;;;;;;;;;5074176;23;20115;-61
2023/06/29 14:04:10;;;;;;;3.95;3.55;;;;;;;;;;5053453;28;20047;-61
2023/06/29 14:06:37;;;;;;;3.70;3.40;;;;;;;;;;5055033;28;20029;-61
2023/06/29 14:12:38;;;;;;;4.35;3.30;;;;;;;;;;5054897;28;20113;-60
2023/06/29 14:18:38;;;;;;;6.13;3.75;;;;;;;;;;5054548;28;20024;-60
2023/06/29 14:24:39;;;;;;;4.95;4.00;;;;;;;;;;5054676;28;20027;-61
2023/06/29 14:30:40;;;;;;;5.85;4.00;;;;;;;;;;5054570;28;20151;-61
2023/06/29 14:36:41;;;;;;;5.90;4.18;;;;;;;;;;5054451;28;20047;-61
2023/06/29 14:42:42;;;;;;;5.25;4.47;;;;;;;;;;5054330;28;20051;-61
2023/06/29 14:48:43;;;;;;;6.85;5.00;;;;;;;;;;5054248;28;20032;-61
2023/06/29 14:54:43;;;;;;;6.03;4.75;;;;;;;;;;5054151;28;20108;-60
2023/06/29 15:00:43;;;;;;;5.50;5.03;;;;;;;;;;5053933;28;20040;-60
2023/06/29 15:11:13;;;;;;;5.28;4.75;;;;;;;;;;5053636;28;20094;-61
2023/06/29 15:17:13;;;;;;;6.95;5.07;;;;;;;;;;5053797;28;20024;-60
2023/06/29 15:19:38;;;;;;;5.43;4.05;;;;;;;;;;5060890;23;20053;-63
2023/06/29 15:22:05;;;;;;;4.75;4.38;;;;;;;;;;5052424;28;20037;-62